createdAt,value
2019-04-16T15:10:04.840Z,11.00
2019-04-16T15:12:34.795Z,9.33
2019-04-16T15:15:00.267Z,8.93
2019-04-16T15:17:29.469Z,9.13
2019-04-16T15:19:55.725Z,14.10
2019-04-16T15:22:22.912Z,9.00
2019-04-16T15:24:49.891Z,9.27
2019-04-16T15:27:16.845Z,11.60
2019-04-16T15:29:44.213Z,9.60
2019-04-16T15:32:11.244Z,10.30
2019-04-16T15:34:41.964Z,8.90
2019-04-16T15:37:06.765Z,10.20
2019-04-16T15:39:36.404Z,10.50
2019-04-16T15:42:02.245Z,8.40
2019-04-16T15:44:31.912Z,13.93
2019-04-16T15:46:57.484Z,10.47
2019-04-16T15:49:24.259Z,8.90
2019-04-16T15:51:51.581Z,8.80
2019-04-16T15:54:18.688Z,8.47
2019-04-16T15:56:45.448Z,8.03
2019-04-16T15:59:12.285Z,7.87
2019-04-16T16:01:39.192Z,8.80
2019-04-16T16:04:06.064Z,10.93
2019-04-16T16:06:32.924Z,8.90
2019-04-16T16:08:59.689Z,9.40
2019-04-16T16:11:26.548Z,9.10
2019-04-16T16:13:56.311Z,9.60
2019-04-16T16:16:22.124Z,12.90
2019-04-16T16:18:48.895Z,11.77
2019-04-16T16:21:15.843Z,15.83
2019-04-16T16:23:42.619Z,9.77
2019-04-16T16:26:09.699Z,8.97
2019-04-16T16:28:36.650Z,9.53
2019-04-16T16:31:03.510Z,9.80
2019-04-16T16:33:30.267Z,10.50
2019-04-16T16:35:59.486Z,9.97
2019-04-16T16:38:25.529Z,11.23
2019-04-16T16:40:52.289Z,11.70
2019-04-16T16:43:18.861Z,11.47
2019-04-16T16:45:45.620Z,9.57
2019-04-16T16:48:12.288Z,9.97
2019-04-16T16:50:41.048Z,10.10
2019-04-16T16:53:07.548Z,9.27
2019-04-16T16:55:34.409Z,11.83
2019-04-16T16:58:01.169Z,9.90
2019-04-16T17:00:27.829Z,13.55
2019-04-16T17:02:54.971Z,10.60
2019-04-16T17:05:21.774Z,14.43
2019-04-16T17:07:50.695Z,11.23
2019-04-16T17:10:17.136Z,10.63
2019-04-16T17:12:43.952Z,12.43
2019-04-16T17:15:10.767Z,11.43
2019-04-16T17:17:37.513Z,10.65
2019-04-16T17:20:04.639Z,11.93
2019-04-16T17:22:31.714Z,12.10
2019-04-16T17:24:58.616Z,14.58
2019-04-16T17:27:25.553Z,12.85
2019-04-16T17:29:52.462Z,12.73
2019-04-16T17:32:19.444Z,10.38
2019-04-16T17:34:46.193Z,11.50
2019-04-16T17:37:12.959Z,12.68
2019-04-16T17:39:42.293Z,10.98
2019-04-16T17:42:08.207Z,11.45
2019-04-16T17:44:34.972Z,14.70
2019-04-16T17:47:02.004Z,13.88
2019-04-16T17:49:28.906Z,13.13
2019-04-16T17:51:55.673Z,11.35
2019-04-16T17:54:22.744Z,13.20
2019-04-16T17:56:51.963Z,14.73
2019-04-16T17:59:18.016Z,12.53
2019-04-16T18:01:44.868Z,13.53
2019-04-16T18:04:11.616Z,14.15
2019-04-16T18:06:38.698Z,15.88
2019-04-16T18:09:05.358Z,17.67
2019-04-16T18:11:32.296Z,20.02
2019-04-16T18:14:04.635Z,13.38
2019-04-16T18:16:28.970Z,17.15
2019-04-16T18:18:59.280Z,16.15
2019-04-16T18:21:25.923Z,15.10
2019-04-16T18:23:52.681Z,19.95
2019-04-16T18:26:19.336Z,14.73
2019-04-16T18:28:46.030Z,16.60
2019-04-16T18:31:12.763Z,13.22
2019-04-16T18:33:39.533Z,15.63
2019-04-16T18:36:06.198Z,13.68
2019-04-16T18:38:32.864Z,12.60
2019-04-16T18:41:02.753Z,14.73
2019-04-16T18:43:28.323Z,12.98
2019-04-16T18:45:55.832Z,13.53
2019-04-16T18:48:24.770Z,17.07
2019-04-16T18:50:51.670Z,13.50
2019-04-16T18:53:18.552Z,17.70
2019-04-16T18:55:45.212Z,19.90
2019-04-16T18:58:11.965Z,15.15
2019-04-16T19:00:38.829Z,17.10
2019-04-16T19:03:05.399Z,21.93
2019-04-16T19:05:32.205Z,14.85
2019-04-16T19:08:00.187Z,20.50
2019-04-16T19:10:27.720Z,15.43
2019-04-16T19:12:54.608Z,20.52
2019-04-16T19:15:21.457Z,18.95
2019-04-16T19:17:48.117Z,17.30
2019-04-16T19:20:17.615Z,23.32
2019-04-16T19:22:46.534Z,22.05
2019-04-16T19:25:11.878Z,28.57
2019-04-16T19:27:38.851Z,28.92
2019-04-16T19:30:05.777Z,29.30
2019-04-16T19:32:35.000Z,36.23
2019-04-16T19:35:09.565Z,32.63
2019-04-16T19:37:32.951Z,27.50
2019-04-16T19:39:57.991Z,22.90
2019-04-16T19:42:25.776Z,26.05
2019-04-16T19:44:53.881Z,22.15
2019-04-16T19:47:23.272Z,21.27
2019-04-16T19:49:49.426Z,17.37
2019-04-16T19:52:17.342Z,20.25
2019-04-16T19:54:44.886Z,21.82
2019-04-16T19:57:11.574Z,19.60
2019-04-16T19:59:38.305Z,19.95
2019-04-16T20:02:04.866Z,20.17
2019-04-16T20:04:31.660Z,18.17
2019-04-16T20:07:01.166Z,18.65
2019-04-16T20:09:27.505Z,16.45
2019-04-16T20:11:55.357Z,15.00
2019-04-16T20:14:23.296Z,17.70
2019-04-16T20:16:50.155Z,18.85
2019-04-16T20:19:16.820Z,19.92
2019-04-16T20:21:43.675Z,26.57
2019-04-16T20:24:10.355Z,17.77
2019-04-16T20:26:37.116Z,15.32
2019-04-16T20:29:03.975Z,16.05
2019-04-16T20:31:30.636Z,13.60
2019-04-16T20:33:58.936Z,13.75
2019-04-16T20:36:25.895Z,15.68
2019-04-16T20:38:52.555Z,19.02
2019-04-16T20:41:19.316Z,14.30
2019-04-16T20:43:46.067Z,17.75
2019-04-16T20:46:12.743Z,15.38
2019-04-16T20:48:41.914Z,19.25
2019-04-16T20:51:08.198Z,18.07
2019-04-16T20:53:34.777Z,14.85
2019-04-16T20:56:01.895Z,18.27
2019-04-16T20:58:31.421Z,19.62
2019-04-16T21:00:57.499Z,16.37
2019-04-16T21:03:24.153Z,15.85
2019-04-16T21:05:57.883Z,17.15
2019-04-16T21:08:24.299Z,19.73
2019-04-16T21:10:48.845Z,19.70
2019-04-16T21:13:16.273Z,12.68
2019-04-16T21:15:43.702Z,14.18
2019-04-16T21:18:12.076Z,15.65
2019-04-16T21:20:38.877Z,13.78
2019-04-16T21:23:05.831Z,13.20
2019-04-16T21:25:32.696Z,14.25
2019-04-16T21:27:59.777Z,14.83
2019-04-16T21:30:26.938Z,14.93
2019-04-16T21:32:53.694Z,15.83
2019-04-16T21:35:20.364Z,22.37
2019-04-16T21:37:47.016Z,15.18
2019-04-16T21:40:13.675Z,16.57
2019-04-16T21:42:40.585Z,13.95
2019-04-16T21:45:07.509Z,17.27
2019-04-16T21:47:34.375Z,16.07
2019-04-16T21:50:01.142Z,16.90
2019-04-16T21:52:28.024Z,12.68
